Portada
METAR-TAF:

METAR-TAF

Aeroports :

Nimes, França

latitud: 43-45N, longitud: 004-25E, altitud: 94 m

Observació

L'informe es va fer fa 34 minuts, a les 04:30 UTC
Vent 9 kt del Nord/Nord-Oest
Temperatura 5°C
Humitat 70%
Pressió 1014 hPa
Visibilitat 10 km o més
sense núvols per sota de 1500 mi sense presència de cumulonimbus.

METAR: LFTW 300430Z AUTO 34009KT CAVOK 05/00 Q1014 NOSIG

Hora: 07:04 (05:04 UTC)

Pronòstic

L'informe es va fer fa 3 hores i 4 minuts, a les 02:00 UTC
Pronòstic vàlid del 30 a les 03 UTC al 31 a les 03 UTC
Vent 10 kt del Nord
Visibilitat 10 km o més
sense núvols per sota de 1500 mi sense presència de cumulonimbus.
Temporalment
l' 30 a les 03 UTC al 30 a les 05 UTC
Vent 15 kt del Nord amb ràfegues de 25 kt
Temporalment
l' 31 a les 00 UTC al 31 a les 03 UTC
Vent 15 kt del Nord/Nord-Est amb ràfegues de 25 kt

TAF: LFTW 300200Z 3003/3103 01010KT CAVOK TEMPO 3003/3005 35015G25KT TEMPO 3100/3103 02015G25KT

Observacions i pronòstics meteorològics de més de 4000 aeroports (METAR i TAF).

Les estacions disponibles són els punts grocs i vermells al mapa.

Posi el ratolí al punt desitjat per veure el nom de l'estació.

Feu clic per veure les observacions i els pronòstics meteorològics.

Per canviar el mapa: feu clic els botons verds amb una creu de color negre per apropar; al botó verd amb un guió per allunyar la imatge; o en les fletxes verdes per a mapes adjacents.


METAR-TAF: